sensor_id;sensor_type;location;lat;lon;timestamp;temperature;humidity
9987;DHT22;5033;46.310;11.214;2023-07-24T00:02:06;21.50;99.90
9987;DHT22;5033;46.310;11.214;2023-07-24T00:04:35;21.50;99.90
9987;DHT22;5033;46.310;11.214;2023-07-24T00:07:02;21.50;99.90
9987;DHT22;5033;46.310;11.214;2023-07-24T00:09:29;21.40;99.90
9987;DHT22;5033;46.310;11.214;2023-07-24T00:11:56;21.40;99.90
9987;DHT22;5033;46.310;11.214;2023-07-24T00:14:23;21.40;99.90
9987;DHT22;5033;46.310;11.214;2023-07-24T00:16:50;21.40;99.90
9987;DHT22;5033;46.310;11.214;2023-07-24T00:19:17;21.40;99.90
9987;DHT22;5033;46.310;11.214;2023-07-24T00:21:45;21.30;99.90
9987;DHT22;5033;46.310;11.214;2023-07-24T00:24:12;21.20;99.90
9987;DHT22;5033;46.310;11.214;2023-07-24T00:26:39;21.20;99.90
9987;DHT22;5033;46.310;11.214;2023-07-24T00:29:06;21.20;99.90
9987;DHT22;5033;46.310;11.214;2023-07-24T00:31:33;21.20;99.90
9987;DHT22;5033;46.310;11.214;2023-07-24T00:34:00;21.20;99.90
9987;DHT22;5033;46.310;11.214;2023-07-24T00:36:27;21.20;99.90
9987;DHT22;5033;46.310;11.214;2023-07-24T00:38:55;21.20;99.90
9987;DHT22;5033;46.310;11.214;2023-07-24T00:41:22;21.20;99.90
9987;DHT22;5033;46.310;11.214;2023-07-24T00:43:49;21.20;99.90
9987;DHT22;5033;46.310;11.214;2023-07-24T00:46:16;21.30;99.90
9987;DHT22;5033;46.310;11.214;2023-07-24T00:48:43;21.30;99.90
9987;DHT22;5033;46.310;11.214;2023-07-24T00:51:10;21.30;99.90
9987;DHT22;5033;46.310;11.214;2023-07-24T00:53:37;21.30;99.90
9987;DHT22;5033;46.310;11.214;2023-07-24T00:56:06;21.20;99.90
9987;DHT22;5033;46.310;11.214;2023-07-24T00:58:34;21.30;99.90
9987;DHT22;5033;46.310;11.214;2023-07-24T01:01:03;21.20;99.90
9987;DHT22;5033;46.310;11.214;2023-07-24T01:03:34;21.20;99.90
9987;DHT22;5033;46.310;11.214;2023-07-24T01:06:02;21.20;99.90
9987;DHT22;5033;46.310;11.214;2023-07-24T01:08:29;21.20;99.90
9987;DHT22;5033;46.310;11.214;2023-07-24T01:10:58;21.20;99.90
9987;DHT22;5033;46.310;11.214;2023-07-24T01:13:34;21.20;99.90
9987;DHT22;5033;46.310;11.214;2023-07-24T01:16:05;21.20;99.90
9987;DHT22;5033;46.310;11.214;2023-07-24T01:18:34;21.20;99.90
9987;DHT22;5033;46.310;11.214;2023-07-24T01:21:05;21.20;99.90
9987;DHT22;5033;46.310;11.214;2023-07-24T01:23:41;21.20;99.90
9987;DHT22;5033;46.310;11.214;2023-07-24T01:26:13;21.20;99.90
9987;DHT22;5033;46.310;11.214;2023-07-24T01:28:40;21.10;99.90
9987;DHT22;5033;46.310;11.214;2023-07-24T01:31:08;21.20;99.90
9987;DHT22;5033;46.310;11.214;2023-07-24T01:33:35;21.10;99.90
9987;DHT22;5033;46.310;11.214;2023-07-24T01:36:03;21.20;99.90
9987;DHT22;5033;46.310;11.214;2023-07-24T01:38:31;21.10;99.90
9987;DHT22;5033;46.310;11.214;2023-07-24T01:41:01;21.10;99.90
9987;DHT22;5033;46.310;11.214;2023-07-24T01:43:30;21.00;99.90
9987;DHT22;5033;46.310;11.214;2023-07-24T01:45:57;21.00;99.90
9987;DHT22;5033;46.310;11.214;2023-07-24T01:48:24;21.00;99.90
9987;DHT22;5033;46.310;11.214;2023-07-24T01:50:51;20.90;99.90
9987;DHT22;5033;46.310;11.214;2023-07-24T01:53:18;20.90;99.90
9987;DHT22;5033;46.310;11.214;2023-07-24T01:55:45;20.90;99.90
9987;DHT22;5033;46.310;11.214;2023-07-24T01:58:12;20.90;99.90
9987;DHT22;5033;46.310;11.214;2023-07-24T02:00:41;20.80;99.90
9987;DHT22;5033;46.310;11.214;2023-07-24T02:03:08;20.80;99.90
9987;DHT22;5033;46.310;11.214;2023-07-24T02:05:35;20.80;99.90
9987;DHT22;5033;46.310;11.214;2023-07-24T02:08:02;20.80;99.90
9987;DHT22;5033;46.310;11.214;2023-07-24T02:10:29;20.80;99.90
9987;DHT22;5033;46.310;11.214;2023-07-24T02:12:56;20.80;99.90
9987;DHT22;5033;46.310;11.214;2023-07-24T02:15:23;20.80;99.90
9987;DHT22;5033;46.310;11.214;2023-07-24T02:17:51;20.80;99.90
9987;DHT22;5033;46.310;11.214;2023-07-24T02:20:18;20.80;99.90
9987;DHT22;5033;46.310;11.214;2023-07-24T02:22:45;20.70;99.90
9987;DHT22;5033;46.310;11.214;2023-07-24T02:25:12;20.70;99.90
9987;DHT22;5033;46.310;11.214;2023-07-24T02:27:39;20.70;99.90
9987;DHT22;5033;46.310;11.214;2023-07-24T02:30:07;20.70;99.90
9987;DHT22;5033;46.310;11.214;2023-07-24T02:32:34;20.70;99.90
9987;DHT22;5033;46.310;11.214;2023-07-24T02:35:02;20.70;99.90
9987;DHT22;5033;46.310;11.214;2023-07-24T02:37:29;20.60;99.90
9987;DHT22;5033;46.310;11.214;2023-07-24T02:39:56;20.60;99.90
9987;DHT22;5033;46.310;11.214;2023-07-24T02:42:23;20.60;99.90
9987;DHT22;5033;46.310;11.214;2023-07-24T02:44:50;20.60;99.90
9987;DHT22;5033;46.310;11.214;2023-07-24T02:47:18;20.60;99.90
9987;DHT22;5033;46.310;11.214;2023-07-24T02:49:45;20.70;99.90
9987;DHT22;5033;46.310;11.214;2023-07-24T02:52:13;20.70;99.90
9987;DHT22;5033;46.310;11.214;2023-07-24T02:54:40;20.80;99.90
9987;DHT22;5033;46.310;11.214;2023-07-24T02:57:07;20.80;99.90
9987;DHT22;5033;46.310;11.214;2023-07-24T02:59:34;20.80;99.90
9987;DHT22;5033;46.310;11.214;2023-07-24T03:02:01;20.80;99.90
9987;DHT22;5033;46.310;11.214;2023-07-24T03:04:28;20.80;99.90
9987;DHT22;5033;46.310;11.214;2023-07-24T03:06:56;20.80;99.90
9987;DHT22;5033;46.310;11.214;2023-07-24T03:09:24;20.80;99.90
9987;DHT22;5033;46.310;11.214;2023-07-24T03:11:51;20.70;99.90
9987;DHT22;5033;46.310;11.214;2023-07-24T03:14:18;20.70;99.90
9987;DHT22;5033;46.310;11.214;2023-07-24T03:16:45;20.70;99.90
9987;DHT22;5033;46.310;11.214;2023-07-24T03:19:12;20.70;99.90
9987;DHT22;5033;46.310;11.214;2023-07-24T03:21:39;20.80;99.90
9987;DHT22;5033;46.310;11.214;2023-07-24T03:24:06;20.80;99.90
9987;DHT22;5033;46.310;11.214;2023-07-24T03:26:34;20.90;99.90
9987;DHT22;5033;46.310;11.214;2023-07-24T03:29:01;20.90;99.90
9987;DHT22;5033;46.310;11.214;2023-07-24T03:31:28;20.90;99.90
9987;DHT22;5033;46.310;11.214;2023-07-24T03:33:55;20.90;99.90
9987;DHT22;5033;46.310;11.214;2023-07-24T03:36:22;20.90;99.90
9987;DHT22;5033;46.310;11.214;2023-07-24T03:38:49;20.80;99.90
9987;DHT22;5033;46.310;11.214;2023-07-24T03:41:16;20.90;99.90
9987;DHT22;5033;46.310;11.214;2023-07-24T03:43:44;20.80;99.90
9987;DHT22;5033;46.310;11.214;2023-07-24T03:46:11;20.80;99.90
9987;DHT22;5033;46.310;11.214;2023-07-24T03:48:38;20.80;99.90
9987;DHT22;5033;46.310;11.214;2023-07-24T03:51:04;20.80;99.90
9987;DHT22;5033;46.310;11.214;2023-07-24T03:53:32;20.80;99.90
9987;DHT22;5033;46.310;11.214;2023-07-24T03:55:59;20.90;99.90
9987;DHT22;5033;46.310;11.214;2023-07-24T03:58:26;20.90;99.90
9987;DHT22;5033;46.310;11.214;2023-07-24T04:00:55;20.90;99.90
9987;DHT22;5033;46.310;11.214;2023-07-24T04:03:22;20.90;99.90
9987;DHT22;5033;46.310;11.214;2023-07-24T04:05:48;20.90;99.90
9987;DHT22;5033;46.310;11.214;2023-07-24T04:08:15;20.90;99.90
9987;DHT22;5033;46.310;11.214;2023-07-24T04:10:42;20.80;99.90
9987;DHT22;5033;46.310;11.214;2023-07-24T04:13:09;20.80;99.90
9987;DHT22;5033;46.310;11.214;2023-07-24T04:15:36;20.80;99.90
9987;DHT22;5033;46.310;11.214;2023-07-24T04:18:05;20.80;99.90
9987;DHT22;5033;46.310;11.214;2023-07-24T04:20:32;20.80;99.90
9987;DHT22;5033;46.310;11.214;2023-07-24T04:22:59;20.80;99.90
9987;DHT22;5033;46.310;11.214;2023-07-24T04:25:26;20.80;99.90
9987;DHT22;5033;46.310;11.214;2023-07-24T04:27:53;20.80;99.90
9987;DHT22;5033;46.310;11.214;2023-07-24T04:30:19;20.80;99.90
9987;DHT22;5033;46.310;11.214;2023-07-24T04:32:46;20.80;99.90
9987;DHT22;5033;46.310;11.214;2023-07-24T04:35:15;20.80;99.90
9987;DHT22;5033;46.310;11.214;2023-07-24T04:37:42;20.90;99.90
9987;DHT22;5033;46.310;11.214;2023-07-24T04:40:09;21.00;99.90
9987;DHT22;5033;46.310;11.214;2023-07-24T04:42:36;21.00;99.90
9987;DHT22;5033;46.310;11.214;2023-07-24T04:45:04;21.10;99.90
9987;DHT22;5033;46.310;11.214;2023-07-24T04:47:31;21.00;99.90
9987;DHT22;5033;46.310;11.214;2023-07-24T04:49:58;21.00;99.90
9987;DHT22;5033;46.310;11.214;2023-07-24T04:52:26;21.00;99.90
9987;DHT22;5033;46.310;11.214;2023-07-24T04:54:53;20.90;99.90
9987;DHT22;5033;46.310;11.214;2023-07-24T04:57:20;21.00;99.90
9987;DHT22;5033;46.310;11.214;2023-07-24T04:59:47;21.00;99.90
9987;DHT22;5033;46.310;11.214;2023-07-24T05:02:14;21.00;99.90
9987;DHT22;5033;46.310;11.214;2023-07-24T05:04:41;21.00;99.90
9987;DHT22;5033;46.310;11.214;2023-07-24T05:07:08;21.10;99.90
9987;DHT22;5033;46.310;11.214;2023-07-24T05:09:36;21.10;99.90
9987;DHT22;5033;46.310;11.214;2023-07-24T05:12:04;21.10;99.90
9987;DHT22;5033;46.310;11.214;2023-07-24T05:14:31;21.10;99.90
9987;DHT22;5033;46.310;11.214;2023-07-24T05:16:58;21.20;99.90
9987;DHT22;5033;46.310;11.214;2023-07-24T05:19:25;21.30;99.90
9987;DHT22;5033;46.310;11.214;2023-07-24T05:21:52;21.30;99.90
9987;DHT22;5033;46.310;11.214;2023-07-24T05:24:19;21.30;99.90
9987;DHT22;5033;46.310;11.214;2023-07-24T05:26:47;21.40;99.90
9987;DHT22;5033;46.310;11.214;2023-07-24T05:29:14;21.40;99.90
9987;DHT22;5033;46.310;11.214;2023-07-24T05:31:41;21.30;99.90
9987;DHT22;5033;46.310;11.214;2023-07-24T05:34:08;21.20;99.90
9987;DHT22;5033;46.310;11.214;2023-07-24T05:36:35;21.10;99.90
9987;DHT22;5033;46.310;11.214;2023-07-24T05:39:02;20.90;99.90
9987;DHT22;5033;46.310;11.214;2023-07-24T05:41:29;20.80;99.90
9987;DHT22;5033;46.310;11.214;2023-07-24T05:43:57;21.00;99.90
9987;DHT22;5033;46.310;11.214;2023-07-24T05:46:24;21.10;99.90
9987;DHT22;5033;46.310;11.214;2023-07-24T05:48:51;21.20;99.90
9987;DHT22;5033;46.310;11.214;2023-07-24T05:51:18;21.30;99.90
9987;DHT22;5033;46.310;11.214;2023-07-24T05:53:45;21.40;99.90
9987;DHT22;5033;46.310;11.214;2023-07-24T05:56:12;21.40;99.90
9987;DHT22;5033;46.310;11.214;2023-07-24T05:58:39;21.40;99.90
9987;DHT22;5033;46.310;11.214;2023-07-24T06:01:07;21.40;99.90
9987;DHT22;5033;46.310;11.214;2023-07-24T06:03:35;21.40;99.90
9987;DHT22;5033;46.310;11.214;2023-07-24T06:06:04;21.40;99.90
9987;DHT22;5033;46.310;11.214;2023-07-24T06:08:31;21.40;99.90
9987;DHT22;5033;46.310;11.214;2023-07-24T06:10:58;21.60;99.90
9987;DHT22;5033;46.310;11.214;2023-07-24T06:13:25;21.70;99.90
9987;DHT22;5033;46.310;11.214;2023-07-24T06:15:52;21.80;99.90
9987;DHT22;5033;46.310;11.214;2023-07-24T06:18:20;21.90;99.90
9987;DHT22;5033;46.310;11.214;2023-07-24T06:20:48;21.90;99.90
9987;DHT22;5033;46.310;11.214;2023-07-24T06:23:18;21.70;99.90
9987;DHT22;5033;46.310;11.214;2023-07-24T06:25:45;21.60;99.90
9987;DHT22;5033;46.310;11.214;2023-07-24T06:28:12;21.60;99.90
9987;DHT22;5033;46.310;11.214;2023-07-24T06:30:39;21.60;99.90
9987;DHT22;5033;46.310;11.214;2023-07-24T06:33:06;21.70;99.90
9987;DHT22;5033;46.310;11.214;2023-07-24T06:35:35;21.80;99.90
9987;DHT22;5033;46.310;11.214;2023-07-24T06:38:02;22.10;99.90
9987;DHT22;5033;46.310;11.214;2023-07-24T06:40:29;22.20;99.90
9987;DHT22;5033;46.310;11.214;2023-07-24T06:42:56;22.30;99.90
9987;DHT22;5033;46.310;11.214;2023-07-24T06:45:22;22.30;99.90
9987;DHT22;5033;46.310;11.214;2023-07-24T06:47:49;22.30;99.90
9987;DHT22;5033;46.310;11.214;2023-07-24T06:50:16;22.20;99.90
9987;DHT22;5033;46.310;11.214;2023-07-24T06:52:45;22.30;99.90
9987;DHT22;5033;46.310;11.214;2023-07-24T06:55:12;22.30;99.90
9987;DHT22;5033;46.310;11.214;2023-07-24T06:57:38;22.30;99.90
9987;DHT22;5033;46.310;11.214;2023-07-24T07:00:07;22.30;99.90
9987;DHT22;5033;46.310;11.214;2023-07-24T07:02:37;22.50;99.90
9987;DHT22;5033;46.310;11.214;2023-07-24T07:05:04;22.80;99.90
9987;DHT22;5033;46.310;11.214;2023-07-24T07:07:31;22.70;99.90
9987;DHT22;5033;46.310;11.214;2023-07-24T07:10:00;22.60;99.90
9987;DHT22;5033;46.310;11.214;2023-07-24T07:12:26;22.40;99.90
9987;DHT22;5033;46.310;11.214;2023-07-24T07:14:54;22.30;99.90
9987;DHT22;5033;46.310;11.214;2023-07-24T07:17:20;22.10;99.90
9987;DHT22;5033;46.310;11.214;2023-07-24T07:19:47;22.00;99.90
9987;DHT22;5033;46.310;11.214;2023-07-24T07:22:14;21.80;99.90
9987;DHT22;5033;46.310;11.214;2023-07-24T07:24:41;21.70;99.90
9987;DHT22;5033;46.310;11.214;2023-07-24T07:27:10;21.80;99.90
9987;DHT22;5033;46.310;11.214;2023-07-24T07:29:37;21.90;99.90
9987;DHT22;5033;46.310;11.214;2023-07-24T07:32:07;22.00;99.90
9987;DHT22;5033;46.310;11.214;2023-07-24T07:34:34;22.00;99.90
9987;DHT22;5033;46.310;11.214;2023-07-24T07:37:04;22.10;99.90
9987;DHT22;5033;46.310;11.214;2023-07-24T07:39:31;22.00;99.90
9987;DHT22;5033;46.310;11.214;2023-07-24T07:41:59;22.00;99.90
9987;DHT22;5033;46.310;11.214;2023-07-24T07:44:27;22.00;99.90
9987;DHT22;5033;46.310;11.214;2023-07-24T07:46:54;22.10;99.90
9987;DHT22;5033;46.310;11.214;2023-07-24T07:49:21;22.10;99.90
9987;DHT22;5033;46.310;11.214;2023-07-24T07:51:48;22.10;99.90
9987;DHT22;5033;46.310;11.214;2023-07-24T07:54:15;22.20;99.90
9987;DHT22;5033;46.310;11.214;2023-07-24T07:56:42;22.30;99.90
9987;DHT22;5033;46.310;11.214;2023-07-24T07:59:09;22.50;99.90
9987;DHT22;5033;46.310;11.214;2023-07-24T08:01:37;22.70;99.90
9987;DHT22;5033;46.310;11.214;2023-07-24T08:04:05;23.20;99.90
9987;DHT22;5033;46.310;11.214;2023-07-24T08:06:32;23.60;99.90
9987;DHT22;5033;46.310;11.214;2023-07-24T08:08:59;23.90;99.90
9987;DHT22;5033;46.310;11.214;2023-07-24T08:11:26;24.50;99.90
9987;DHT22;5033;46.310;11.214;2023-07-24T08:13:53;25.00;99.90
9987;DHT22;5033;46.310;11.214;2023-07-24T08:16:20;25.50;99.90
9987;DHT22;5033;46.310;11.214;2023-07-24T08:18:48;25.20;99.90
9987;DHT22;5033;46.310;11.214;2023-07-24T08:21:15;25.00;99.90
9987;DHT22;5033;46.310;11.214;2023-07-24T08:23:42;25.00;99.90
9987;DHT22;5033;46.310;11.214;2023-07-24T08:26:09;25.10;99.90
9987;DHT22;5033;46.310;11.214;2023-07-24T08:28:36;25.20;99.90
9987;DHT22;5033;46.310;11.214;2023-07-24T08:31:07;25.00;99.90
9987;DHT22;5033;46.310;11.214;2023-07-24T08:33:34;24.60;99.90
9987;DHT22;5033;46.310;11.214;2023-07-24T08:36:04;24.30;99.90
9987;DHT22;5033;46.310;11.214;2023-07-24T08:38:31;24.20;99.90
9987;DHT22;5033;46.310;11.214;2023-07-24T08:41:03;24.10;99.90
9987;DHT22;5033;46.310;11.214;2023-07-24T08:43:30;23.90;99.90
9987;DHT22;5033;46.310;11.214;2023-07-24T08:45:58;23.70;99.90
9987;DHT22;5033;46.310;11.214;2023-07-24T08:48:26;23.30;99.90
9987;DHT22;5033;46.310;11.214;2023-07-24T08:50:56;23.00;99.90
9987;DHT22;5033;46.310;11.214;2023-07-24T08:53:25;22.60;99.90
9987;DHT22;5033;46.310;11.214;2023-07-24T08:55:53;22.30;99.90
9987;DHT22;5033;46.310;11.214;2023-07-24T08:58:21;22.10;99.90
9987;DHT22;5033;46.310;11.214;2023-07-24T09:00:50;22.00;99.90
9987;DHT22;5033;46.310;11.214;2023-07-24T09:03:18;21.90;99.90
9987;DHT22;5033;46.310;11.214;2023-07-24T09:05:45;21.80;99.90
9987;DHT22;5033;46.310;11.214;2023-07-24T09:08:12;21.80;99.90
9987;DHT22;5033;46.310;11.214;2023-07-24T09:10:41;21.70;99.90
9987;DHT22;5033;46.310;11.214;2023-07-24T09:13:11;21.70;99.90
9987;DHT22;5033;46.310;11.214;2023-07-24T09:15:41;21.80;99.90
9987;DHT22;5033;46.310;11.214;2023-07-24T09:18:09;22.00;99.90
9987;DHT22;5033;46.310;11.214;2023-07-24T09:20:40;22.10;99.90
9987;DHT22;5033;46.310;11.214;2023-07-24T09:23:07;22.40;99.90
9987;DHT22;5033;46.310;11.214;2023-07-24T09:25:36;22.40;99.90
9987;DHT22;5033;46.310;11.214;2023-07-24T09:28:13;22.30;99.90
9987;DHT22;5033;46.310;11.214;2023-07-24T09:30:41;22.40;99.90
9987;DHT22;5033;46.310;11.214;2023-07-24T09:33:09;22.60;99.90
9987;DHT22;5033;46.310;11.214;2023-07-24T09:35:36;22.90;99.90
9987;DHT22;5033;46.310;11.214;2023-07-24T09:38:05;23.10;99.90
9987;DHT22;5033;46.310;11.214;2023-07-24T09:40:38;23.10;99.90
9987;DHT22;5033;46.310;11.214;2023-07-24T09:43:17;22.90;99.90
9987;DHT22;5033;46.310;11.214;2023-07-24T09:45:45;22.70;99.90
9987;DHT22;5033;46.310;11.214;2023-07-24T09:48:14;22.60;99.90
9987;DHT22;5033;46.310;11.214;2023-07-24T09:57:26;22.30;99.90
9987;DHT22;5033;46.310;11.214;2023-07-24T09:59:56;22.40;99.90
9987;DHT22;5033;46.310;11.214;2023-07-24T10:02:24;22.40;99.90
9987;DHT22;5033;46.310;11.214;2023-07-24T10:04:52;22.30;99.90
9987;DHT22;5033;46.310;11.214;2023-07-24T10:07:19;22.20;99.90
9987;DHT22;5033;46.310;11.214;2023-07-24T10:09:48;22.10;99.90
9987;DHT22;5033;46.310;11.214;2023-07-24T10:12:16;22.10;99.90
9987;DHT22;5033;46.310;11.214;2023-07-24T10:14:44;22.20;99.90
9987;DHT22;5033;46.310;11.214;2023-07-24T10:17:13;22.20;99.90
9987;DHT22;5033;46.310;11.214;2023-07-24T10:19:41;22.40;99.90
9987;DHT22;5033;46.310;11.214;2023-07-24T10:22:09;22.90;99.90
9987;DHT22;5033;46.310;11.214;2023-07-24T10:24:43;23.20;99.90
9987;DHT22;5033;46.310;11.214;2023-07-24T10:27:10;23.20;99.90
9987;DHT22;5033;46.310;11.214;2023-07-24T10:29:38;23.10;99.90
9987;DHT22;5033;46.310;11.214;2023-07-24T10:32:17;22.80;99.90
9987;DHT22;5033;46.310;11.214;2023-07-24T10:34:44;22.50;99.90
9987;DHT22;5033;46.310;11.214;2023-07-24T10:37:11;22.20;99.90
9987;DHT22;5033;46.310;11.214;2023-07-24T10:39:39;22.20;99.90
9987;DHT22;5033;46.310;11.214;2023-07-24T10:42:07;22.20;99.90
9987;DHT22;5033;46.310;11.214;2023-07-24T10:44:35;22.10;99.90
9987;DHT22;5033;46.310;11.214;2023-07-24T10:47:02;22.00;99.90
9987;DHT22;5033;46.310;11.214;2023-07-24T10:49:30;21.80;99.90
9987;DHT22;5033;46.310;11.214;2023-07-24T10:51:58;21.50;99.90
9987;DHT22;5033;46.310;11.214;2023-07-24T10:54:25;21.20;99.90
9987;DHT22;5033;46.310;11.214;2023-07-24T10:56:57;21.10;99.90
9987;DHT22;5033;46.310;11.214;2023-07-24T10:59:35;21.00;99.90
9987;DHT22;5033;46.310;11.214;2023-07-24T11:02:04;21.10;99.90
9987;DHT22;5033;46.310;11.214;2023-07-24T11:04:32;21.20;99.90
9987;DHT22;5033;46.310;11.214;2023-07-24T11:07:00;21.20;99.90
9987;DHT22;5033;46.310;11.214;2023-07-24T11:09:37;21.30;99.90
9987;DHT22;5033;46.310;11.214;2023-07-24T11:12:13;21.60;99.90
9987;DHT22;5033;46.310;11.214;2023-07-24T11:14:51;21.90;99.90
9987;DHT22;5033;46.310;11.214;2023-07-24T11:17:19;22.10;99.90
9987;DHT22;5033;46.310;11.214;2023-07-24T11:19:48;22.40;99.90
9987;DHT22;5033;46.310;11.214;2023-07-24T11:22:15;22.70;99.90
9987;DHT22;5033;46.310;11.214;2023-07-24T11:24:43;22.90;99.90
9987;DHT22;5033;46.310;11.214;2023-07-24T11:27:12;22.80;99.90
9987;DHT22;5033;46.310;11.214;2023-07-24T11:29:40;22.70;99.90
9987;DHT22;5033;46.310;11.214;2023-07-24T11:32:07;22.60;99.90
9987;DHT22;5033;46.310;11.214;2023-07-24T11:34:35;22.50;99.90
9987;DHT22;5033;46.310;11.214;2023-07-24T11:37:05;22.30;99.90
9987;DHT22;5033;46.310;11.214;2023-07-24T11:39:32;22.20;99.90
9987;DHT22;5033;46.310;11.214;2023-07-24T11:42:00;22.10;99.90
9987;DHT22;5033;46.310;11.214;2023-07-24T11:44:28;21.80;99.90
9987;DHT22;5033;46.310;11.214;2023-07-24T11:47:01;21.60;99.90
9987;DHT22;5033;46.310;11.214;2023-07-24T11:49:28;21.70;99.90
9987;DHT22;5033;46.310;11.214;2023-07-24T11:52:00;22.00;99.90
9987;DHT22;5033;46.310;11.214;2023-07-24T11:54:29;22.30;99.90
9987;DHT22;5033;46.310;11.214;2023-07-24T11:56:56;23.00;99.90
9987;DHT22;5033;46.310;11.214;2023-07-24T11:59:24;23.50;99.90
9987;DHT22;5033;46.310;11.214;2023-07-24T12:01:51;23.70;99.90
9987;DHT22;5033;46.310;11.214;2023-07-24T12:04:18;23.70;99.90
9987;DHT22;5033;46.310;11.214;2023-07-24T12:06:46;23.50;99.90
9987;DHT22;5033;46.310;11.214;2023-07-24T12:09:12;23.30;99.90
9987;DHT22;5033;46.310;11.214;2023-07-24T12:11:42;23.10;99.90
9987;DHT22;5033;46.310;11.214;2023-07-24T12:14:10;23.00;99.90
9987;DHT22;5033;46.310;11.214;2023-07-24T12:16:38;22.90;99.90
9987;DHT22;5033;46.310;11.214;2023-07-24T12:19:05;22.80;99.90
9987;DHT22;5033;46.310;11.214;2023-07-24T12:21:32;22.50;99.90
9987;DHT22;5033;46.310;11.214;2023-07-24T12:23:59;22.30;99.90
9987;DHT22;5033;46.310;11.214;2023-07-24T12:26:26;22.20;99.90
9987;DHT22;5033;46.310;11.214;2023-07-24T12:28:54;22.20;99.90
9987;DHT22;5033;46.310;11.214;2023-07-24T12:31:21;22.10;99.90
9987;DHT22;5033;46.310;11.214;2023-07-24T12:33:49;22.00;99.90
9987;DHT22;5033;46.310;11.214;2023-07-24T12:36:16;22.00;99.90
9987;DHT22;5033;46.310;11.214;2023-07-24T12:38:43;21.90;99.90
9987;DHT22;5033;46.310;11.214;2023-07-24T12:41:11;21.90;99.90
9987;DHT22;5033;46.310;11.214;2023-07-24T12:43:38;21.80;99.90
9987;DHT22;5033;46.310;11.214;2023-07-24T12:46:06;21.60;99.90
9987;DHT22;5033;46.310;11.214;2023-07-24T12:48:33;21.40;99.90
9987;DHT22;5033;46.310;11.214;2023-07-24T12:51:01;21.10;99.90
9987;DHT22;5033;46.310;11.214;2023-07-24T12:53:28;20.90;99.90
9987;DHT22;5033;46.310;11.214;2023-07-24T12:55:55;20.70;99.90
9987;DHT22;5033;46.310;11.214;2023-07-24T12:58:22;20.50;99.90
9987;DHT22;5033;46.310;11.214;2023-07-24T13:00:50;20.50;99.90
9987;DHT22;5033;46.310;11.214;2023-07-24T13:03:18;20.70;99.90
9987;DHT22;5033;46.310;11.214;2023-07-24T13:05:47;20.80;99.90
9987;DHT22;5033;46.310;11.214;2023-07-24T13:08:14;20.90;99.90
9987;DHT22;5033;46.310;11.214;2023-07-24T13:10:40;20.90;99.90
9987;DHT22;5033;46.310;11.214;2023-07-24T13:13:07;20.90;99.90
9987;DHT22;5033;46.310;11.214;2023-07-24T13:15:35;20.80;99.90
9987;DHT22;5033;46.310;11.214;2023-07-24T13:18:02;20.60;99.90
9987;DHT22;5033;46.310;11.214;2023-07-24T13:20:30;20.50;99.90
9987;DHT22;5033;46.310;11.214;2023-07-24T13:22:57;20.40;99.90
9987;DHT22;5033;46.310;11.214;2023-07-24T13:25:24;20.40;99.90
9987;DHT22;5033;46.310;11.214;2023-07-24T13:27:51;20.30;99.90
9987;DHT22;5033;46.310;11.214;2023-07-24T13:30:18;20.30;99.90
9987;DHT22;5033;46.310;11.214;2023-07-24T13:32:45;20.20;99.90
9987;DHT22;5033;46.310;11.214;2023-07-24T13:35:12;20.20;99.90
9987;DHT22;5033;46.310;11.214;2023-07-24T13:37:42;20.10;99.90
9987;DHT22;5033;46.310;11.214;2023-07-24T13:40:09;20.10;99.90
9987;DHT22;5033;46.310;11.214;2023-07-24T13:42:36;20.00;99.90
9987;DHT22;5033;46.310;11.214;2023-07-24T13:45:04;20.10;99.90
9987;DHT22;5033;46.310;11.214;2023-07-24T13:47:31;20.00;99.90
9987;DHT22;5033;46.310;11.214;2023-07-24T13:49:58;19.90;99.90
9987;DHT22;5033;46.310;11.214;2023-07-24T13:52:28;19.90;99.90
9987;DHT22;5033;46.310;11.214;2023-07-24T13:54:57;19.90;99.90
9987;DHT22;5033;46.310;11.214;2023-07-24T13:57:24;19.90;99.90
9987;DHT22;5033;46.310;11.214;2023-07-24T13:59:51;20.00;99.90
9987;DHT22;5033;46.310;11.214;2023-07-24T14:02:17;20.10;99.90
9987;DHT22;5033;46.310;11.214;2023-07-24T14:04:45;20.10;99.90
9987;DHT22;5033;46.310;11.214;2023-07-24T14:07:12;20.00;99.90
9987;DHT22;5033;46.310;11.214;2023-07-24T14:09:39;20.10;99.90
9987;DHT22;5033;46.310;11.214;2023-07-24T14:12:08;20.10;99.90
9987;DHT22;5033;46.310;11.214;2023-07-24T14:14:35;20.20;99.90
9987;DHT22;5033;46.310;11.214;2023-07-24T14:17:02;20.20;99.90
9987;DHT22;5033;46.310;11.214;2023-07-24T14:19:29;20.30;99.90
9987;DHT22;5033;46.310;11.214;2023-07-24T14:21:55;20.30;99.90
9987;DHT22;5033;46.310;11.214;2023-07-24T14:24:22;20.30;99.90
9987;DHT22;5033;46.310;11.214;2023-07-24T14:26:49;20.40;99.90
9987;DHT22;5033;46.310;11.214;2023-07-24T14:29:18;20.50;99.90
9987;DHT22;5033;46.310;11.214;2023-07-24T14:31:45;20.60;99.90
9987;DHT22;5033;46.310;11.214;2023-07-24T14:34:12;20.60;99.90
9987;DHT22;5033;46.310;11.214;2023-07-24T14:36:39;20.80;99.90
9987;DHT22;5033;46.310;11.214;2023-07-24T14:39:06;21.00;99.90
9987;DHT22;5033;46.310;11.214;2023-07-24T14:41:34;21.30;99.90
9987;DHT22;5033;46.310;11.214;2023-07-24T14:44:01;21.50;99.90
9987;DHT22;5033;46.310;11.214;2023-07-24T14:46:29;21.80;99.90
9987;DHT22;5033;46.310;11.214;2023-07-24T14:48:56;22.20;99.90
9987;DHT22;5033;46.310;11.214;2023-07-24T14:51:23;22.50;99.90
9987;DHT22;5033;46.310;11.214;2023-07-24T14:53:50;22.70;99.90
9987;DHT22;5033;46.310;11.214;2023-07-24T14:56:17;22.80;99.90
9987;DHT22;5033;46.310;11.214;2023-07-24T14:58:44;23.00;99.90
9987;DHT22;5033;46.310;11.214;2023-07-24T15:01:11;23.00;99.90
9987;DHT22;5033;46.310;11.214;2023-07-24T15:03:40;23.00;99.90
9987;DHT22;5033;46.310;11.214;2023-07-24T15:06:07;22.80;99.90
9987;DHT22;5033;46.310;11.214;2023-07-24T15:08:34;22.70;99.90
9987;DHT22;5033;46.310;11.214;2023-07-24T15:11:01;22.60;99.90
9987;DHT22;5033;46.310;11.214;2023-07-24T15:13:28;22.50;99.90
9987;DHT22;5033;46.310;11.214;2023-07-24T15:15:55;22.40;99.90
9987;DHT22;5033;46.310;11.214;2023-07-24T15:18:22;22.30;99.90
9987;DHT22;5033;46.310;11.214;2023-07-24T15:20:50;22.50;99.90
9987;DHT22;5033;46.310;11.214;2023-07-24T15:23:19;22.60;99.90
9987;DHT22;5033;46.310;11.214;2023-07-24T15:25:46;22.60;99.90
9987;DHT22;5033;46.310;11.214;2023-07-24T15:28:12;22.30;99.90
9987;DHT22;5033;46.310;11.214;2023-07-24T15:30:39;22.20;99.90
9987;DHT22;5033;46.310;11.214;2023-07-24T15:33:06;22.30;99.90
9987;DHT22;5033;46.310;11.214;2023-07-24T15:35:33;22.40;99.90
9987;DHT22;5033;46.310;11.214;2023-07-24T15:38:02;22.60;99.90
9987;DHT22;5033;46.310;11.214;2023-07-24T15:40:30;22.70;99.90
9987;DHT22;5033;46.310;11.214;2023-07-24T15:42:58;22.80;99.90
9987;DHT22;5033;46.310;11.214;2023-07-24T15:45:25;22.80;99.90
9987;DHT22;5033;46.310;11.214;2023-07-24T15:47:52;22.90;99.90
9987;DHT22;5033;46.310;11.214;2023-07-24T15:50:19;23.00;99.90
9987;DHT22;5033;46.310;11.214;2023-07-24T15:52:46;23.10;99.90
9987;DHT22;5033;46.310;11.214;2023-07-24T15:55:14;23.10;99.90